Time;durP1;ratioP1;P1;durP2;ratioP2;P2;SDS_P1;SDS_P2;PMS_P1;PMS_P2;Temp;Humidity;BMP_temperature;BMP_pressure;BME280_temperature;BME280_humidity;BME280_pressure;Samples;Min_cycle;Max_cycle;Signal;HPM_P1;HPM_P2
2021/09/27 00:00:50;;;;;;;14.32;9.10;;;;;;;;;;6108490;23;20215;-91
2021/09/27 00:03:55;;;;;;;19.80;10.25;;;;;;;;;;6107881;23;20170;-92
2021/09/27 00:07:00;;;;;;;19.23;9.40;;;;;;;;;;6107503;23;20169;-90
2021/09/27 00:10:07;;;;;;;13.85;8.07;;;;;;;;;;6109450;23;20170;-91
2021/09/27 00:13:13;;;;;;;15.52;8.75;;;;;;;;;;6110266;23;20241;-90
2021/09/27 00:16:18;;;;;;;13.85;8.27;;;;;;;;;;6108974;23;20166;-92
2021/09/27 00:19:24;;;;;;;18.92;9.23;;;;;;;;;;6107372;23;20254;-90
2021/09/27 00:22:29;;;;;;;15.20;8.27;;;;;;;;;;6108728;23;20242;-90
2021/09/27 00:25:36;;;;;;;18.35;8.80;;;;;;;;;;6108206;23;20576;-91
2021/09/27 00:28:41;;;;;;;13.45;7.85;;;;;;;;;;6108203;23;20174;-90
2021/09/27 00:31:47;;;;;;;13.75;8.93;;;;;;;;;;6109421;23;20170;-90
2021/09/27 00:34:52;;;;;;;14.70;8.38;;;;;;;;;;6109538;23;20173;-92
2021/09/27 00:37:58;;;;;;;15.65;8.30;;;;;;;;;;6110203;23;20169;-92
2021/09/27 00:41:05;;;;;;;13.07;8.18;;;;;;;;;;6108372;23;20181;-92
2021/09/27 00:44:10;;;;;;;18.02;8.82;;;;;;;;;;6109647;23;20223;-91
2021/09/27 00:47:15;;;;;;;20.33;9.05;;;;;;;;;;6109174;23;20710;-91
2021/09/27 00:50:21;;;;;;;14.02;8.65;;;;;;;;;;6109004;23;20177;-90
2021/09/27 00:53:28;;;;;;;13.55;8.85;;;;;;;;;;6107823;23;20182;-90
2021/09/27 00:56:36;;;;;;;15.68;8.52;;;;;;;;;;6109319;23;20173;-90
2021/09/27 00:59:42;;;;;;;13.52;7.97;;;;;;;;;;6109794;23;20178;-91
2021/09/27 01:02:48;;;;;;;15.02;8.10;;;;;;;;;;6109205;23;20299;-92
2021/09/27 01:05:56;;;;;;;18.50;8.93;;;;;;;;;;6109702;23;20206;-91
2021/09/27 01:09:05;;;;;;;15.15;8.38;;;;;;;;;;6108533;23;20645;-91
2021/09/27 01:12:19;;;;;;;15.73;8.18;;;;;;;;;;6109302;23;20177;-90
2021/09/27 01:15:30;;;;;;;14.82;8.05;;;;;;;;;;6109557;23;20165;-91
2021/09/27 01:18:40;;;;;;;15.20;7.70;;;;;;;;;;6108527;23;20175;-89
2021/09/27 01:21:49;;;;;;;12.98;8.02;;;;;;;;;;6109218;23;20285;-91
2021/09/27 01:25:11;;;;;;;16.17;8.05;;;;;;;;;;6109165;23;20182;-90
2021/09/27 01:28:32;;;;;;;14.73;8.32;;;;;;;;;;6113362;23;20218;-89
2021/09/27 01:31:55;;;;;;;19.88;8.07;;;;;;;;;;6097044;23;20238;-90
2021/09/27 01:35:10;;;;;;;14.20;7.55;;;;;;;;;;6112114;23;20190;-91
2021/09/27 01:38:19;;;;;;;14.15;8.00;;;;;;;;;;6111964;23;20181;-91
2021/09/27 01:41:29;;;;;;;13.38;8.55;;;;;;;;;;6111012;23;20186;-91
2021/09/27 01:44:37;;;;;;;12.13;7.78;;;;;;;;;;6110149;23;20182;-90
2021/09/27 01:47:46;;;;;;;13.00;7.93;;;;;;;;;;6110765;23;20233;-92
2021/09/27 01:50:55;;;;;;;14.73;7.55;;;;;;;;;;6109909;23;20189;-91
2021/09/27 01:54:05;;;;;;;17.65;8.65;;;;;;;;;;6092827;23;20223;-91
2021/09/27 01:57:14;;;;;;;14.13;8.38;;;;;;;;;;6110194;23;20174;-90
2021/09/27 02:00:21;;;;;;;13.20;7.35;;;;;;;;;;6093154;23;20177;-89
2021/09/27 02:03:29;;;;;;;14.80;8.27;;;;;;;;;;6110194;23;20240;-92
2021/09/27 02:06:39;;;;;;;12.73;7.93;;;;;;;;;;6109143;23;20198;-90
2021/09/27 02:09:59;;;;;;;12.43;8.13;;;;;;;;;;6109250;23;20169;-90
2021/09/27 02:13:06;;;;;;;17.38;8.05;;;;;;;;;;6110049;23;20273;-90
2021/09/27 02:16:14;;;;;;;12.32;8.65;;;;;;;;;;6110717;23;20170;-90
2021/09/27 02:19:23;;;;;;;13.75;8.80;;;;;;;;;;6110071;23;20238;-90
2021/09/27 02:22:34;;;;;;;13.65;8.55;;;;;;;;;;6109937;23;20173;-89
2021/09/27 02:25:43;;;;;;;13.80;8.18;;;;;;;;;;6111716;23;20194;-91
2021/09/27 02:28:48;;;;;;;14.20;8.70;;;;;;;;;;6111685;23;20298;-91
2021/09/27 02:32:00;;;;;;;16.77;9.95;;;;;;;;;;6112761;23;20165;-90
2021/09/27 02:35:07;;;;;;;17.48;9.13;;;;;;;;;;6112926;23;20174;-89
2021/09/27 02:38:15;;;;;;;15.52;9.77;;;;;;;;;;6112120;23;20630;-88
2021/09/27 02:41:24;;;;;;;14.57;9.90;;;;;;;;;;6112030;23;20166;-90
2021/09/27 02:44:29;;;;;;;19.45;10.25;;;;;;;;;;6110650;23;20614;-88
2021/09/27 02:47:38;;;;;;;16.25;10.07;;;;;;;;;;6094701;23;20165;-90
2021/09/27 02:50:44;;;;;;;17.98;11.02;;;;;;;;;;6111007;23;20261;-89
2021/09/27 02:53:50;;;;;;;17.33;10.43;;;;;;;;;;6109458;23;20177;-91
2021/09/27 02:57:01;;;;;;;15.38;9.82;;;;;;;;;;6110323;23;20158;-89
2021/09/27 03:00:08;;;;;;;14.85;9.10;;;;;;;;;;6108931;23;20170;-88
2021/09/27 03:03:15;;;;;;;19.48;9.98;;;;;;;;;;6109564;23;20211;-88
2021/09/27 03:06:22;;;;;;;17.30;10.07;;;;;;;;;;6110725;23;20185;-90
2021/09/27 03:09:44;;;;;;;15.00;9.63;;;;;;;;;;6110599;23;20205;-92
2021/09/27 03:12:54;;;;;;;16.75;10.32;;;;;;;;;;6111138;23;20236;-91
2021/09/27 03:16:05;;;;;;;18.65;10.23;;;;;;;;;;6111052;23;20181;-89
2021/09/27 03:19:16;;;;;;;18.48;10.40;;;;;;;;;;6111931;23;20223;-90
2021/09/27 03:22:24;;;;;;;17.02;10.77;;;;;;;;;;6111548;23;20276;-90
2021/09/27 03:25:35;;;;;;;16.30;10.60;;;;;;;;;;6109652;23;20557;-89
2021/09/27 03:28:45;;;;;;;19.02;11.00;;;;;;;;;;6109675;23;20230;-91
2021/09/27 03:31:53;;;;;;;17.08;10.23;;;;;;;;;;6110401;23;20174;-90
2021/09/27 03:35:01;;;;;;;17.42;10.23;;;;;;;;;;6110666;23;20173;-90
2021/09/27 03:38:09;;;;;;;14.48;9.52;;;;;;;;;;6110994;23;20170;-90
2021/09/27 03:41:18;;;;;;;18.38;9.52;;;;;;;;;;6111060;23;20237;-90
2021/09/27 03:44:32;;;;;;;13.95;8.55;;;;;;;;;;6110368;23;20166;-90
2021/09/27 03:47:40;;;;;;;13.65;8.52;;;;;;;;;;6111082;23;20193;-89
2021/09/27 03:50:46;;;;;;;13.07;8.65;;;;;;;;;;6111845;23;20173;-92
2021/09/27 03:53:54;;;;;;;14.20;8.48;;;;;;;;;;6111469;23;20181;-91
2021/09/27 03:57:01;;;;;;;14.95;8.73;;;;;;;;;;6110400;23;20245;-93
2021/09/27 04:00:10;;;;;;;15.48;8.05;;;;;;;;;;6111104;23;20154;-89
2021/09/27 04:03:27;;;;;;;15.23;7.65;;;;;;;;;;6111990;23;20222;-91
2021/09/27 04:06:39;;;;;;;13.73;8.10;;;;;;;;;;6111923;23;20214;-88
2021/09/27 04:09:50;;;;;;;14.10;8.63;;;;;;;;;;6111124;23;20169;-89
2021/09/27 04:13:01;;;;;;;16.30;9.23;;;;;;;;;;6111741;23;20185;-89
2021/09/27 04:16:18;;;;;;;17.25;8.57;;;;;;;;;;6111356;23;20178;-90
2021/09/27 04:19:26;;;;;;;16.83;8.80;;;;;;;;;;6111174;23;20170;-91
2021/09/27 04:22:35;;;;;;;16.65;8.55;;;;;;;;;;6111116;23;20689;-89
2021/09/27 04:25:43;;;;;;;17.10;9.20;;;;;;;;;;6110577;23;20165;-92
2021/09/27 04:29:01;;;;;;;15.30;9.07;;;;;;;;;;6111148;23;20665;-91
2021/09/27 04:32:16;;;;;;;15.77;9.73;;;;;;;;;;6112336;23;20618;-89
2021/09/27 04:35:25;;;;;;;17.00;8.98;;;;;;;;;;6110996;23;20169;-89
2021/09/27 04:38:30;;;;;;;14.70;8.57;;;;;;;;;;6110805;23;20216;-91
2021/09/27 04:41:48;;;;;;;14.95;8.88;;;;;;;;;;6110901;23;20177;-90
2021/09/27 04:45:07;;;;;;;22.67;9.20;;;;;;;;;;6110205;23;20166;-90
2021/09/27 04:48:22;;;;;;;14.90;8.15;;;;;;;;;;6109800;23;20337;-88
2021/09/27 04:51:36;;;;;;;17.92;8.77;;;;;;;;;;6108553;23;20169;-89
2021/09/27 04:54:56;;;;;;;14.98;8.93;;;;;;;;;;6108448;23;20207;-92
2021/09/27 04:58:16;;;;;;;14.32;9.07;;;;;;;;;;6109148;23;20174;-89
2021/09/27 05:01:30;;;;;;;17.52;8.93;;;;;;;;;;6108530;23;20595;-89
2021/09/27 05:04:41;;;;;;;19.92;9.77;;;;;;;;;;6109216;23;20186;-90
2021/09/27 05:08:01;;;;;;;21.33;11.00;;;;;;;;;;6109850;23;20241;-89
2021/09/27 05:11:27;;;;;;;19.08;10.70;;;;;;;;;;6110569;23;20198;-90
2021/09/27 05:14:37;;;;;;;19.15;10.13;;;;;;;;;;6110997;23;20170;-89
2021/09/27 05:17:50;;;;;;;19.02;11.05;;;;;;;;;;6111110;23;20177;-91
2021/09/27 05:21:22;;;;;;;20.17;10.48;;;;;;;;;;6113300;23;20173;-91
2021/09/27 05:24:35;;;;;;;18.73;10.57;;;;;;;;;;6114468;23;20501;-90
2021/09/27 05:31:29;;;;;;;20.52;10.98;;;;;;;;;;6095100;23;20226;-90
2021/09/27 05:34:41;;;;;;;25.50;11.63;;;;;;;;;;6113005;23;20190;-90
2021/09/27 05:37:56;;;;;;;19.70;10.52;;;;;;;;;;6114680;23;20173;-91
2021/09/27 05:41:07;;;;;;;16.15;9.23;;;;;;;;;;6112200;23;20237;-89
2021/09/27 05:44:19;;;;;;;17.70;9.98;;;;;;;;;;6112412;23;20171;-90
2021/09/27 05:47:28;;;;;;;19.10;10.35;;;;;;;;;;6115313;23;20205;-90
2021/09/27 05:50:35;;;;;;;21.30;11.10;;;;;;;;;;6112621;23;20180;-91
2021/09/27 05:53:48;;;;;;;18.23;9.60;;;;;;;;;;6110691;23;20169;-89
2021/09/27 05:56:57;;;;;;;16.65;9.80;;;;;;;;;;6110051;23;20680;-91
2021/09/27 06:00:06;;;;;;;19.77;10.13;;;;;;;;;;6094746;23;20153;-90
2021/09/27 06:03:32;;;;;;;19.95;9.85;;;;;;;;;;6110230;23;20246;-91
2021/09/27 06:06:40;;;;;;;15.68;9.13;;;;;;;;;;6094930;23;20281;-90
2021/09/27 06:09:54;;;;;;;14.05;8.25;;;;;;;;;;6108128;23;20214;-90
2021/09/27 06:13:06;;;;;;;16.17;9.10;;;;;;;;;;6109573;23;20170;-91
2021/09/27 06:16:15;;;;;;;16.42;9.70;;;;;;;;;;6108446;23;20677;-89
2021/09/27 06:19:23;;;;;;;19.92;9.85;;;;;;;;;;6108754;23;20198;-91
2021/09/27 06:22:36;;;;;;;18.00;10.30;;;;;;;;;;6109991;23;20177;-89
2021/09/27 06:25:47;;;;;;;15.85;8.70;;;;;;;;;;6110926;23;20170;-90
2021/09/27 06:28:55;;;;;;;17.02;8.80;;;;;;;;;;6111267;23;20165;-90
2021/09/27 06:32:03;;;;;;;15.77;8.93;;;;;;;;;;6112228;23;20245;-91
2021/09/27 06:35:13;;;;;;;13.30;8.30;;;;;;;;;;6112420;23;20178;-91
2021/09/27 06:38:20;;;;;;;18.10;8.57;;;;;;;;;;6111759;23;20166;-92
2021/09/27 06:41:30;;;;;;;17.52;8.95;;;;;;;;;;6113378;23;20218;-91
2021/09/27 06:44:35;;;;;;;16.38;8.85;;;;;;;;;;6113636;23;20174;-92
2021/09/27 06:47:40;;;;;;;18.90;9.10;;;;;;;;;;6112011;23;20261;-92
2021/09/27 06:50:45;;;;;;;15.18;8.73;;;;;;;;;;6113728;23;20182;-92
2021/09/27 06:53:50;;;;;;;15.30;8.77;;;;;;;;;;6114829;23;20181;-92
2021/09/27 07:00:17;;;;;;;18.15;8.75;;;;;;;;;;6096930;23;20190;-91
2021/09/27 07:03:22;;;;;;;17.27;9.23;;;;;;;;;;6112822;23;20206;-91
2021/09/27 07:06:27;;;;;;;18.45;8.93;;;;;;;;;;6114416;23;20174;-93
2021/09/27 22:07:40;;;;;;;33.22;15.65;;;;;;;;;;5100332;28;20174;-93
2021/09/27 22:10:47;;;;;;;24.80;14.82;;;;;;;;;;5096046;28;20192;-91
2021/09/27 22:13:52;;;;;;;33.03;14.43;;;;;;;;;;5127184;28;20180;-92
2021/09/27 22:16:57;;;;;;;30.30;14.30;;;;;;;;;;5122157;27;20602;-92
2021/09/27 22:20:02;;;;;;;27.52;14.77;;;;;;;;;;5114060;28;20335;-92
2021/09/27 22:23:10;;;;;;;30.55;13.32;;;;;;;;;;5108729;28;20193;-92
2021/09/27 22:26:15;;;;;;;28.17;14.18;;;;;;;;;;5106684;28;20660;-91
2021/09/27 22:29:20;;;;;;;25.23;14.32;;;;;;;;;;5107562;28;20306;-90
2021/09/27 22:32:25;;;;;;;30.33;15.38;;;;;;;;;;5108030;28;20189;-92
2021/09/27 22:35:33;;;;;;;28.45;15.77;;;;;;;;;;5105689;28;20197;-90
2021/09/27 22:38:40;;;;;;;27.60;15.35;;;;;;;;;;5106903;28;20225;-90
2021/09/27 22:41:45;;;;;;;30.38;15.65;;;;;;;;;;5119474;28;20702;-93
2021/09/27 22:44:50;;;;;;;28.05;14.90;;;;;;;;;;5115597;28;20304;-90
2021/09/27 22:47:55;;;;;;;30.83;15.18;;;;;;;;;;5105000;28;20231;-91
2021/09/27 22:51:01;;;;;;;31.52;15.45;;;;;;;;;;5106228;28;20221;-91
2021/09/27 22:54:07;;;;;;;30.20;15.85;;;;;;;;;;5105106;28;20180;-92
2021/09/27 22:57:12;;;;;;;28.83;13.95;;;;;;;;;;5086515;28;20189;-92
2021/09/27 23:00:17;;;;;;;24.75;14.48;;;;;;;;;;5108538;28;20331;-92
2021/09/27 23:03:22;;;;;;;26.65;14.85;;;;;;;;;;5107128;28;20180;-92
2021/09/27 23:06:27;;;;;;;27.35;14.63;;;;;;;;;;5127620;28;20189;-91
2021/09/27 23:09:34;;;;;;;31.10;14.30;;;;;;;;;;5127085;28;20193;-93
2021/09/27 23:12:39;;;;;;;27.92;14.68;;;;;;;;;;5121447;28;20239;-91
2021/09/27 23:15:46;;;;;;;28.85;15.38;;;;;;;;;;5096350;28;20196;-91
2021/09/27 23:18:51;;;;;;;27.20;14.40;;;;;;;;;;5091348;28;20185;-92
2021/09/27 23:21:56;;;;;;;33.67;16.38;;;;;;;;;;5091721;28;20218;-93
2021/09/27 23:25:03;;;;;;;32.05;15.38;;;;;;;;;;5090609;28;20202;-91
2021/09/27 23:28:08;;;;;;;33.55;15.10;;;;;;;;;;5092681;28;20644;-92
2021/09/27 23:31:14;;;;;;;32.75;15.52;;;;;;;;;;5092075;28;20248;-90
2021/09/27 23:34:21;;;;;;;27.58;15.55;;;;;;;;;;5112452;28;20215;-92
2021/09/27 23:37:26;;;;;;;30.45;16.05;;;;;;;;;;5104523;28;20617;-92
2021/09/27 23:40:33;;;;;;;33.17;16.00;;;;;;;;;;5090679;28;20233;-92
2021/09/27 23:43:38;;;;;;;35.85;17.48;;;;;;;;;;5092504;28;20272;-92
2021/09/27 23:46:43;;;;;;;31.90;16.88;;;;;;;;;;5093975;28;20194;-93
2021/09/27 23:49:48;;;;;;;37.70;17.65;;;;;;;;;;5136374;27;20177;-90
2021/09/27 23:52:53;;;;;;;34.15;17.38;;;;;;;;;;5112087;28;20189;-93
2021/09/27 23:56:00;;;;;;;36.58;17.88;;;;;;;;;;5111988;28;20318;-92
2021/09/27 23:59:05;;;;;;;37.85;18.05;;;;;;;;;;5112008;28;20208;-91
